Terminal Aerodrome Forecast
Issued by NWS Cleveland, OH

Home | Current Version | Previous Version | Graphics & Text | Print | Product List | Glossary On
Versions: 1 2 3 4 5 6 7 8 9 10 11 12 13 14 15 16 17 18 19 20 21 22 23 24 25 26
000
FTUS41 KCLE 200600 AAA
TAFMFD
TAF AMD
KMFD 200626Z 2006/2106 17005KT P6SM VCSH SCT050 OVC150
      TEMPO 2007/2009 1 1/2SM TSRA BR SCT025 OVC035CB
     FM200900 20005KT 4SM BR SCT035 BKN150
      TEMPO 2010/2013 2SM BR BKN012
     FM201400 24010KT P6SM BKN035=

USA.gov is the U.S. government's official web portal to all federal, state and local government web resources and services.